Time;durP1;ratioP1;P1;durP2;ratioP2;P2;SDS_P1;SDS_P2;PMS_P1;PMS_P2;Temp;Humidity;BMP_temperature;BMP_pressure;BME280_temperature;BME280_humidity;BME280_pressure;Samples;Min_cycle;Max_cycle;Signal;HPM_P1;HPM_P2
2022/12/14 00:04:30;;;;;;;84.80;30.72;;;;;;;-4.45;100.00;100353.81;5043332;56;1145072;-72
2022/12/14 00:09:36;;;;;;;95.00;36.00;;;;;;;-4.50;100.00;100353.03;5043424;56;1143107;-67
2022/12/14 00:14:42;;;;;;;173.10;56.07;;;;;;;-4.64;100.00;100356.73;5058753;56;1143127;-68
2022/12/14 00:19:48;;;;;;;78.05;25.25;;;;;;;-4.74;100.00;100364.23;5033939;56;1147024;-71
2022/12/14 00:24:54;;;;;;;84.63;29.73;;;;;;;-4.77;100.00;100352.67;5120519;55;1143113;-67
2022/12/14 00:29:59;;;;;;;113.63;38.27;;;;;;;-4.72;100.00;100344.83;5149797;55;1143181;-71
2022/12/14 00:35:06;;;;;;;96.37;34.07;;;;;;;-4.74;100.00;100340.16;5142159;55;1145060;-72
2022/12/14 00:40:12;;;;;;;106.83;34.23;;;;;;;-4.80;100.00;100332.52;5197733;55;1143204;-67
2022/12/14 00:45:18;;;;;;;70.00;25.00;;;;;;;-4.76;100.00;100342.77;5161761;55;1155177;-71
2022/12/14 00:50:23;;;;;;;71.93;26.63;;;;;;;-4.74;100.00;100345.33;5218590;55;1143206;-71
2022/12/14 00:55:29;;;;;;;63.53;24.17;;;;;;;-4.75;100.00;100340.61;5139635;55;1143071;-68
2022/12/14 01:00:35;;;;;;;50.53;21.90;;;;;;;-4.79;100.00;100340.67;5133259;55;1143080;-73
2022/12/14 01:05:41;;;;;;;48.43;19.87;;;;;;;-4.97;100.00;100345.28;5205709;55;1143139;-71
2022/12/14 01:10:46;;;;;;;52.47;19.63;;;;;;;-5.10;100.00;100333.91;5185439;55;1143239;-69
2022/12/14 01:15:53;;;;;;;65.00;24.82;;;;;;;-5.10;100.00;100341.21;5185231;55;1142993;-68
2022/12/14 01:21:15;;;;;;;80.87;27.93;;;;;;;-5.29;100.00;100327.35;5196086;55;1143085;-68
2022/12/14 01:26:22;;;;;;;91.63;32.83;;;;;;;-5.40;100.00;100320.66;5093160;56;1143037;-71
2022/12/14 01:31:34;;;;;;;80.50;29.80;;;;;;;-5.45;100.00;100326.74;5045467;57;1143151;-72
2022/12/14 01:36:40;;;;;;;102.15;33.50;;;;;;;-5.57;100.00;100323.92;5053212;56;1143342;-69
2022/12/14 01:41:51;;;;;;;101.75;35.17;;;;;;;-5.60;100.00;100321.39;5085809;56;1145255;-72
2022/12/14 01:47:13;;;;;;;80.87;30.45;;;;;;;-5.63;100.00;100329.16;5045154;56;1145000;-71
2022/12/14 01:52:24;;;;;;;81.67;30.72;;;;;;;-5.58;100.00;100322.66;5091997;56;1143382;-71
2022/12/14 01:57:39;;;;;;;87.27;30.10;;;;;;;-5.47;100.00;100311.74;5143234;56;1143198;-69
2022/12/14 02:02:49;;;;;;;164.07;50.12;;;;;;;-5.36;100.00;100306.85;5176217;55;1143227;-72
2022/12/14 02:07:56;;;;;;;76.10;31.10;;;;;;;-5.25;100.00;100299.38;5208894;55;1145238;-68
2022/12/14 02:13:25;;;;;;;74.73;30.33;;;;;;;-5.23;100.00;100301.05;5229589;55;1142946;-70
2022/12/14 02:18:33;;;;;;;72.10;29.98;;;;;;;-5.33;100.00;100301.63;5208429;55;1143117;-66
2022/12/14 02:24:18;;;;;;;82.87;31.33;;;;;;;-5.38;100.00;100294.86;5152928;55;1142987;-72
2022/12/14 02:29:54;;;;;;;249.07;59.05;;;;;;;-5.40;100.00;100296.17;5121713;56;1143095;-71
2022/12/14 02:35:11;;;;;;;294.53;69.80;;;;;;;-5.31;100.00;100297.30;5109504;56;1145101;-72
2022/12/14 02:40:45;;;;;;;153.13;41.23;;;;;;;-5.19;100.00;100295.41;5121537;55;1145105;-72
2022/12/14 02:46:14;;;;;;;178.07;52.30;;;;;;;-5.12;100.00;100308.59;5121502;55;1145032;-70
2022/12/14 02:51:54;;;;;;;84.92;32.13;;;;;;;-5.27;100.00;100308.85;5121726;55;1145061;-71
2022/12/14 02:57:25;;;;;;;75.97;31.17;;;;;;;-5.37;100.00;100306.88;5142166;55;1143160;-69
2022/12/14 03:02:36;;;;;;;73.37;30.87;;;;;;;-5.40;100.00;100303.05;5063890;56;1142906;-67
2022/12/14 03:07:51;;;;;;;117.30;42.03;;;;;;;-5.46;100.00;100292.83;5045907;56;1143434;-68
2022/12/14 03:13:07;;;;;;;106.10;38.65;;;;;;;-5.42;100.00;100290.63;5065973;56;1145156;-71
2022/12/14 03:18:17;;;;;;;89.33;31.10;;;;;;;-5.28;100.00;100287.38;5045894;56;1145099;-68
2022/12/14 03:23:29;;;;;;;69.87;28.87;;;;;;;-5.18;100.00;100279.89;5014832;56;1143107;-72
2022/12/14 03:28:46;;;;;;;;;;;;;;;-5.13;100.00;100273.38;5109378;56;1142976;-73
2022/12/14 03:33:55;;;;;;;67.92;28.90;;;;;;;-5.10;100.00;100269.45;5107058;56;976097;-69
2022/12/14 03:39:03;;;;;;;52.93;23.47;;;;;;;-5.03;100.00;100272.31;5001234;57;1140983;-71
2022/12/14 03:44:19;;;;;;;65.10;28.00;;;;;;;-4.97;100.00;100264.48;5017637;57;1143224;-69
2022/12/14 03:49:38;;;;;;;60.37;24.33;;;;;;;-4.89;100.00;100258.77;4987470;57;1143212;-72
2022/12/14 03:55:03;;;;;;;48.17;22.40;;;;;;;-4.85;100.00;100260.81;4989997;57;1143039;-70
2022/12/14 04:00:14;;;;;;;52.17;23.13;;;;;;;-4.78;100.00;100250.80;4860820;57;1143280;-73
2022/12/14 04:05:24;;;;;;;61.90;26.63;;;;;;;-4.71;100.00;100260.11;4932315;58;1143314;-74
2022/12/14 04:21:42;;;;;;;56.77;25.70;;;;;;;-4.53;100.00;100248.13;5103234;56;1143086;-71
2022/12/14 04:27:01;;;;;;;58.57;24.37;;;;;;;-4.44;100.00;100241.51;5042685;56;1142887;-71
2022/12/14 04:32:12;;;;;;;53.80;23.57;;;;;;;-4.47;100.00;100231.25;5085701;56;1142946;-69
2022/12/14 04:37:22;;;;;;;54.03;25.57;;;;;;;-4.51;100.00;100240.36;5003371;56;1143008;-70
2022/12/14 04:42:32;;;;;;;68.33;27.90;;;;;;;-4.59;100.00;100237.95;5032836;57;1143016;-67
2022/12/14 04:47:42;;;;;;;65.23;26.23;;;;;;;-4.62;100.00;100240.16;5016546;57;1143028;-70
2022/12/14 04:53:04;;;;;;;64.23;27.53;;;;;;;-4.64;100.00;100234.61;4993051;56;1143212;-72
2022/12/14 04:58:20;;;;;;;66.87;29.03;;;;;;;-4.73;100.00;100236.06;5027214;57;1143220;-72
2022/12/14 05:03:33;;;;;;;70.62;29.40;;;;;;;-4.81;100.00;100239.25;5063259;55;1143127;-67
2022/12/14 05:09:13;;;;;;;76.47;32.83;;;;;;;-4.92;100.00;100227.02;5147959;55;1143101;-72
2022/12/14 05:14:24;;;;;;;72.80;29.30;;;;;;;-5.00;100.00;100220.70;5160876;55;1142933;-70
2022/12/14 05:19:30;;;;;;;64.15;30.37;;;;;;;-5.04;100.00;100221.19;5177193;55;1143250;-68
2022/12/14 05:24:36;;;;;;;69.13;30.23;;;;;;;-5.09;100.00;100216.58;5150650;55;1142979;-72
2022/12/14 05:29:43;;;;;;;68.13;30.47;;;;;;;-5.16;100.00;100211.11;5164149;55;1170170;-71
2022/12/14 05:34:49;;;;;;;62.73;28.02;;;;;;;-5.20;100.00;100213.80;5111439;55;1143112;-69
2022/12/14 05:39:55;;;;;;;68.07;32.23;;;;;;;-5.33;100.00;100205.41;5080611;56;1143104;-68
2022/12/14 05:45:01;;;;;;;80.67;34.20;;;;;;;-5.41;100.00;100195.70;5120501;56;1143119;-68
2022/12/14 05:50:08;;;;;;;66.53;30.23;;;;;;;-5.42;100.00;100202.58;5182847;55;1143065;-68
2022/12/14 05:55:13;;;;;;;67.50;32.50;;;;;;;-5.47;100.00;100198.37;5186251;55;1143284;-68
2022/12/14 06:00:20;;;;;;;69.73;30.80;;;;;;;-5.51;100.00;100190.30;5193913;55;1143028;-69
2022/12/14 06:05:27;;;;;;;73.13;31.57;;;;;;;-5.56;100.00;100192.10;5092033;56;1143272;-66
2022/12/14 06:10:32;;;;;;;75.87;31.10;;;;;;;-5.68;100.00;100201.75;5097914;56;1143044;-71
2022/12/14 06:15:38;;;;;;;68.30;29.45;;;;;;;-5.71;100.00;100202.23;5152925;55;1142870;-70
2022/12/14 06:20:44;;;;;;;71.80;29.33;;;;;;;-5.79;100.00;100198.48;5205849;55;1165703;-67
2022/12/14 06:25:55;;;;;;;69.25;26.68;;;;;;;-5.84;100.00;100206.73;5121559;55;1142924;-71
2022/12/14 06:31:01;;;;;;;69.70;28.83;;;;;;;-5.88;100.00;100192.67;5150392;56;1142989;-67
2022/12/14 06:36:07;;;;;;;67.13;26.93;;;;;;;-5.95;100.00;100189.77;5178219;55;1143089;-68
2022/12/14 06:41:13;;;;;;;64.10;27.50;;;;;;;-6.00;100.00;100189.86;5218436;55;1143122;-68
2022/12/14 06:46:22;;;;;;;72.27;28.73;;;;;;;-6.04;100.00;100191.62;5218493;55;1143613;-69
2022/12/14 06:51:27;;;;;;;67.17;29.57;;;;;;;-6.09;100.00;100186.13;5239066;55;1142927;-70
2022/12/14 06:56:34;;;;;;;69.43;29.10;;;;;;;-6.12;100.00;100182.34;5218513;55;1142874;-71
2022/12/14 07:01:41;;;;;;;67.03;28.03;;;;;;;-6.17;100.00;100182.39;5192399;55;1143170;-69
2022/12/14 07:06:47;;;;;;;76.63;29.60;;;;;;;-6.14;100.00;100201.66;5149692;56;1143149;-67
2022/12/14 07:11:53;;;;;;;67.50;29.77;;;;;;;-6.11;100.00;100193.05;5086216;56;1143140;-71
2022/12/14 07:16:59;;;;;;;67.62;28.95;;;;;;;-6.13;100.00;100199.94;5145977;55;1143213;-69
2022/12/14 07:22:04;;;;;;;76.07;28.50;;;;;;;-6.18;100.00;100200.43;5036671;57;1143062;-73
2022/12/14 07:27:11;;;;;;;116.83;42.90;;;;;;;-6.21;100.00;100195.33;5044731;55;1143148;-70
2022/12/14 07:32:16;;;;;;;81.07;31.60;;;;;;;-6.21;100.00;100187.17;4938270;57;1145249;-72
2022/12/14 07:37:23;;;;;;;74.72;32.78;;;;;;;-6.16;100.00;100189.68;5000655;57;1143061;-69
2022/12/14 07:42:28;;;;;;;82.07;30.90;;;;;;;-6.16;100.00;100175.09;5207723;55;1143157;-69
2022/12/14 07:47:35;;;;;;;79.73;31.50;;;;;;;-6.13;100.00;100184.06;5207646;55;1143379;-70
2022/12/14 07:52:41;;;;;;;88.07;35.07;;;;;;;-6.12;100.00;100172.89;5207564;55;1143036;-69
2022/12/14 07:57:47;;;;;;;100.45;37.58;;;;;;;-5.98;100.00;100167.95;5231993;55;1143031;-68
2022/12/14 08:02:58;;;;;;;78.40;30.97;;;;;;;-5.80;100.00;100160.72;5153467;54;1145264;-68
2022/12/14 08:08:04;;;;;;;87.05;33.13;;;;;;;-5.70;100.00;100162.72;5107464;56;1143038;-72
2022/12/14 08:13:09;;;;;;;84.20;36.93;;;;;;;-5.53;100.00;100158.56;5125235;56;1142989;-69
2022/12/14 08:18:15;;;;;;;77.53;32.30;;;;;;;-5.35;100.00;100146.63;5167020;55;1143200;-69
2022/12/14 08:23:21;;;;;;;83.35;34.63;;;;;;;-5.14;100.00;100143.62;5085487;55;1143216;-68
2022/12/14 08:28:28;;;;;;;77.40;32.70;;;;;;;-4.97;100.00;100140.27;5099997;55;1143112;-69
2022/12/14 08:33:36;;;;;;;84.73;34.90;;;;;;;-4.97;100.00;100136.40;5100822;55;1142982;-71
2022/12/14 08:38:42;;;;;;;91.63;36.40;;;;;;;-4.89;100.00;100123.36;5099773;56;1143216;-67
2022/12/14 08:43:51;;;;;;;74.57;32.63;;;;;;;-4.75;100.00;100125.20;5084538;56;1143236;-71
2022/12/14 08:48:57;;;;;;;80.67;35.93;;;;;;;-4.63;100.00;100129.23;5090545;55;1143398;-70
2022/12/14 08:54:03;;;;;;;138.18;46.25;;;;;;;-4.51;100.00;100119.08;5119033;55;1143084;-69
2022/12/14 08:59:09;;;;;;;193.37;65.63;;;;;;;-4.43;100.00;100108.97;5072869;56;1145187;-72
2022/12/14 09:04:14;;;;;;;72.63;31.33;;;;;;;-4.41;100.00;100099.91;5050850;56;1145042;-70
2022/12/14 09:09:20;;;;;;;63.85;27.73;;;;;;;-4.42;100.00;100103.36;5043941;56;1143111;-70
2022/12/14 09:14:27;;;;;;;83.70;34.53;;;;;;;-4.48;100.00;100086.75;5014104;56;1143260;-66
2022/12/14 09:19:33;;;;;;;80.40;30.53;;;;;;;-4.50;100.00;100097.55;5128896;56;1143255;-70
2022/12/14 09:24:38;;;;;;;110.83;38.40;;;;;;;-4.44;100.00;100070.32;5085732;55;1142954;-69
2022/12/14 09:29:44;;;;;;;178.83;68.07;;;;;;;-4.37;100.00;100063.67;5091635;55;1145086;-70
2022/12/14 09:34:51;;;;;;;119.80;50.23;;;;;;;-4.31;100.00;100065.27;5075542;55;1145129;-70
2022/12/14 09:39:58;;;;;;;68.52;30.50;;;;;;;-4.23;100.00;100062.03;5073874;55;1145150;-70
2022/12/14 09:45:17;;;;;;;93.30;46.85;;;;;;;-4.15;100.00;100051.09;5147832;55;1143012;-71
2022/12/14 09:50:24;;;;;;;96.03;41.97;;;;;;;-4.11;100.00;100050.55;5152241;55;1143034;-70
2022/12/14 09:55:46;;;;;;;89.87;43.07;;;;;;;-4.09;100.00;100035.42;5040853;57;1142966;-68
2022/12/14 10:01:05;;;;;;;82.33;39.17;;;;;;;-4.09;100.00;100017.34;5181808;55;1143009;-66
2022/12/14 10:06:43;;;;;;;68.27;31.27;;;;;;;-4.08;100.00;100015.61;5189529;55;1143153;-68
2022/12/14 10:11:57;;;;;;;67.93;28.73;;;;;;;-4.05;100.00;100011.22;5124374;55;1143075;-69
2022/12/14 10:17:23;;;;;;;95.12;46.85;;;;;;;-4.04;100.00;100003.88;5079490;56;1143091;-71
2022/12/14 10:22:35;;;;;;;66.20;28.80;;;;;;;-4.02;100.00;99994.80;5087441;56;1143031;-68
2022/12/14 10:27:48;;;;;;;68.03;29.50;;;;;;;-3.94;100.00;99989.83;5112006;56;1141146;-67
2022/12/14 10:32:56;;;;;;;;;;;;;;;-3.89;100.00;99980.67;5131992;55;1141158;-70
2022/12/14 10:38:06;;;;;;;66.53;28.10;;;;;;;-3.86;100.00;99975.42;5070308;55;974268;-69
2022/12/14 10:43:48;;;;;;;67.63;29.27;;;;;;;-3.82;100.00;99978.78;5109459;55;1138841;-67
2022/12/14 10:49:20;;;;;;;61.37;28.57;;;;;;;-3.81;100.00;99965.79;5079231;55;1140874;-68
2022/12/14 10:54:44;;;;;;;79.27;33.17;;;;;;;-3.73;100.00;99963.00;5117154;56;1140996;-69
2022/12/14 10:59:51;;;;;;;;;;;;;;;-3.65;100.00;99961.03;5112048;55;1141004;-71
2022/12/14 11:05:03;;;;;;;69.70;31.63;;;;;;;-3.59;100.00;99955.26;5054842;56;974282;-69
2022/12/14 11:10:31;;;;;;;60.77;31.07;;;;;;;-3.51;100.00;99951.62;4947515;57;1138958;-71
2022/12/14 11:15:41;;;;;;;73.50;32.73;;;;;;;-3.45;100.00;99950.97;5035210;56;1141105;-71
2022/12/14 11:20:54;;;;;;;69.13;32.60;;;;;;;-3.32;100.00;99935.48;5036778;55;1141099;-66
2022/12/14 11:26:03;;;;;;;59.80;25.88;;;;;;;-3.25;100.00;99930.98;5067597;56;1140940;-69
2022/12/14 11:31:26;;;;;;;83.87;36.60;;;;;;;-3.19;100.00;99913.97;5111822;56;1140992;-69
2022/12/14 11:36:42;;;;;;;82.70;28.70;;;;;;;-3.03;100.00;99911.75;5159472;55;1140934;-72
2022/12/14 11:42:01;;;;;;;83.87;37.47;;;;;;;-2.63;100.00;99898.37;5198336;55;1140945;-68
2022/12/14 11:47:11;;;;;;;94.47;38.70;;;;;;;-2.17;100.00;99893.28;5219031;55;1140995;-68
2022/12/14 11:52:30;;;;;;;74.80;32.60;;;;;;;-1.64;100.00;99885.27;5198300;55;1141108;-70
2022/12/14 11:57:57;;;;;;;55.90;26.77;;;;;;;-1.20;100.00;99877.50;5195211;55;1141123;-71
2022/12/14 12:03:10;;;;;;;63.95;29.25;;;;;;;-1.18;100.00;99873.95;5175530;55;1140959;-66
2022/12/14 12:08:29;;;;;;;73.40;30.93;;;;;;;-1.20;100.00;99869.72;5124118;56;1140813;-69
2022/12/14 12:13:43;;;;;;;94.20;38.80;;;;;;;-1.14;100.00;99862.55;5113956;56;1141001;-69
2022/12/14 12:19:12;;;;;;;67.73;28.53;;;;;;;-0.92;100.00;99854.75;5065683;57;1141015;-68
2022/12/14 12:24:40;;;;;;;58.40;30.47;;;;;;;-0.78;100.00;99848.53;4987301;57;1141106;-69
2022/12/14 12:30:08;;;;;;;68.10;32.43;;;;;;;-0.87;99.59;99845.45;4986410;57;1140885;-68
2022/12/14 12:35:22;;;;;;;84.67;37.63;;;;;;;-1.18;100.00;99848.45;5025676;56;1139013;-70
2022/12/14 12:40:47;;;;;;;78.87;35.20;;;;;;;-1.44;100.00;99843.02;5060110;57;1140935;-67
2022/12/14 12:45:59;;;;;;;80.97;36.97;;;;;;;-1.70;100.00;99846.63;5021343;57;1141092;-69
2022/12/14 12:51:16;;;;;;;89.37;38.53;;;;;;;-1.83;100.00;99846.68;5031596;57;1141709;-67
2022/12/14 12:56:30;;;;;;;92.43;39.47;;;;;;;-1.97;100.00;99848.49;5036288;57;1141316;-71
2022/12/14 13:01:40;;;;;;;84.20;38.70;;;;;;;-2.05;100.00;99831.11;5148210;56;1140898;-69
2022/12/14 13:07:11;;;;;;;88.50;39.33;;;;;;;-2.04;100.00;99834.55;5129182;56;1141150;-70
2022/12/14 13:12:22;;;;;;;96.23;41.20;;;;;;;-2.23;100.00;99839.55;5130416;56;1140865;-71
2022/12/14 13:17:48;;;;;;;92.57;39.47;;;;;;;-2.09;100.00;99825.64;5180885;55;1140972;-73
2022/12/14 13:22:55;;;;;;;90.07;38.67;;;;;;;-2.05;100.00;99823.34;5237617;55;1141029;-71
2022/12/14 13:28:24;;;;;;;79.62;33.90;;;;;;;-2.06;100.00;99811.73;5216694;55;1140739;-70
2022/12/14 13:33:52;;;;;;;100.77;41.40;;;;;;;-2.29;100.00;99810.01;5196699;55;1140988;-66
2022/12/14 13:39:24;;;;;;;106.40;48.37;;;;;;;-2.45;100.00;99806.28;5109900;56;1143016;-68
2022/12/14 13:44:58;;;;;;;112.37;47.07;;;;;;;-2.63;100.00;99805.19;5128338;56;1142986;-69
2022/12/14 13:50:06;;;;;;;195.10;67.50;;;;;;;-2.79;100.00;99801.00;5149136;56;1143024;-71
2022/12/14 13:55:35;;;;;;;243.87;83.73;;;;;;;-2.90;100.00;99805.67;5120221;55;1143008;-67
2022/12/14 14:00:51;;;;;;;164.30;61.83;;;;;;;-3.00;100.00;99795.25;5113286;55;1143274;-71
2022/12/14 14:06:18;;;;;;;316.48;131.60;;;;;;;-3.13;100.00;99801.30;5192824;55;1143328;-69
2022/12/14 14:11:37;;;;;;;133.20;62.57;;;;;;;-3.19;100.00;99795.86;5208518;55;1145018;-70
2022/12/14 14:16:47;;;;;;;98.07;43.10;;;;;;;-3.23;100.00;99796.88;5213408;55;1143001;-69
2022/12/14 14:22:11;;;;;;;116.83;44.13;;;;;;;-3.31;100.00;99791.10;5125887;56;1140924;-69
2022/12/14 14:27:20;;;;;;;106.47;44.63;;;;;;;-3.36;100.00;99792.98;5125259;55;1143062;-72
2022/12/14 14:32:41;;;;;;;125.87;48.55;;;;;;;-3.39;100.00;99781.47;5125027;56;1143037;-70
2022/12/14 14:38:08;;;;;;;141.67;56.83;;;;;;;-3.45;100.00;99780.81;5005689;56;1143063;-67
2022/12/14 14:43:25;;;;;;;127.73;49.07;;;;;;;-3.52;100.00;99777.60;4958476;58;1143255;-68
2022/12/14 14:48:44;;;;;;;140.23;51.53;;;;;;;-3.58;100.00;99765.71;4958708;58;1143019;-66
2022/12/14 14:54:14;;;;;;;119.17;49.40;;;;;;;-3.61;100.00;99758.05;4950128;58;1143015;-68
2022/12/14 14:59:28;;;;;;;118.07;48.70;;;;;;;-3.67;100.00;99751.80;5026507;57;1143085;-71
2022/12/14 15:04:48;;;;;;;331.50;143.60;;;;;;;-3.73;100.00;99743.39;4785632;59;1143211;-71
2022/12/14 15:10:17;;;;;;;411.15;213.62;;;;;;;-3.75;100.00;99733.10;4883047;59;1145179;-71
2022/12/14 15:15:28;;;;;;;158.50;69.87;;;;;;;-3.75;100.00;99721.92;4708244;59;1145288;-70
2022/12/14 15:20:34;;;;;;;120.62;46.48;;;;;;;-3.77;100.00;99718.54;4792913;59;1143223;-69
2022/12/14 15:25:39;;;;;;;121.00;47.37;;;;;;;-3.86;100.00;99715.81;4811802;60;1143068;-70
2022/12/14 15:30:47;;;;;;;98.40;41.17;;;;;;;-3.91;100.00;99715.95;4870479;58;1143197;-71
2022/12/14 15:35:53;;;;;;;89.25;37.60;;;;;;;-3.94;100.00;99704.42;4878752;57;1141040;-69
2022/12/14 15:41:05;;;;;;;101.97;39.23;;;;;;;-3.99;100.00;99704.19;4882386;58;1141201;-68
2022/12/14 15:46:21;;;;;;;140.93;53.33;;;;;;;-4.07;100.00;99699.69;4836660;58;1143108;-72
2022/12/14 15:51:37;;;;;;;144.63;56.10;;;;;;;-4.14;100.00;99695.19;4991616;57;1143073;-71
2022/12/14 15:56:50;;;;;;;110.40;43.70;;;;;;;-4.22;100.00;99689.84;4996791;57;1143094;-65
2022/12/14 16:02:04;;;;;;;175.30;60.23;;;;;;;-4.28;100.00;99690.41;5092187;56;1143564;-68
2022/12/14 16:07:32;;;;;;;167.82;57.00;;;;;;;-4.34;100.00;99686.75;5106760;56;1143130;-69
2022/12/14 16:12:49;;;;;;;156.77;51.07;;;;;;;-4.38;100.00;99677.84;5018338;56;1143034;-69
2022/12/14 16:17:58;;;;;;;167.96;53.24;;;;;;;-4.39;100.00;99677.45;5041177;56;1143197;-71
2022/12/14 16:23:21;;;;;;;173.27;56.37;;;;;;;-4.46;100.00;99672.94;5005370;56;1143244;-68
2022/12/14 16:28:36;;;;;;;1012.78;291.90;;;;;;;-4.48;100.00;99667.41;4912379;58;1143296;-68
2022/12/14 16:33:43;;;;;;;674.30;186.17;;;;;;;-4.52;100.00;99661.49;4921192;57;1147269;-72
2022/12/14 16:39:02;;;;;;;431.03;131.83;;;;;;;-4.57;100.00;99653.48;4977306;57;1144928;-69
2022/12/14 16:44:21;;;;;;;488.30;150.50;;;;;;;-4.62;100.00;99646.75;4940628;57;1145059;-70
2022/12/14 16:49:38;;;;;;;473.23;137.73;;;;;;;-4.67;100.00;99652.92;4953215;57;1145319;-73
2022/12/14 16:54:47;;;;;;;647.92;187.03;;;;;;;-4.76;100.00;99647.61;4959701;57;1145034;-71
2022/12/14 17:00:04;;;;;;;813.57;296.43;;;;;;;-4.81;100.00;99627.54;4924082;56;1145398;-69
2022/12/14 17:05:16;;;;;;;305.53;99.30;;;;;;;-4.88;100.00;99622.15;5074227;56;1145190;-72
2022/12/14 17:10:25;;;;;;;509.10;158.63;;;;;;;-5.01;100.00;99610.06;5087642;56;1143101;-68
2022/12/14 17:15:34;;;;;;;459.77;137.40;;;;;;;-5.07;100.00;99605.11;5032583;56;1145594;-67
2022/12/14 17:20:40;;;;;;;238.80;75.70;;;;;;;-5.14;100.00;99606.16;5047225;56;1145157;-72
2022/12/14 17:25:46;;;;;;;404.53;121.27;;;;;;;-5.21;100.00;99607.23;5057689;55;1143041;-71
2022/12/14 17:30:56;;;;;;;316.63;90.83;;;;;;;-5.22;100.00;99603.41;5081651;55;1145264;-69
2022/12/14 17:36:00;;;;;;;476.60;146.70;;;;;;;-5.20;100.00;99591.33;5125461;55;1143404;-71
2022/12/14 17:41:09;;;;;;;623.07;255.03;;;;;;;-5.23;100.00;99593.55;5088442;55;1145180;-69
2022/12/14 17:46:15;;;;;;;384.57;110.33;;;;;;;-5.27;100.00;99593.66;5044503;56;1145091;-74
2022/12/14 17:51:28;;;;;;;496.33;149.97;;;;;;;-5.29;100.00;99587.70;5129865;55;1145075;-71
2022/12/14 17:56:34;;;;;;;309.37;94.67;;;;;;;-5.35;100.00;99586.16;5136615;55;1144871;-73
2022/12/14 18:01:41;;;;;;;381.13;103.83;;;;;;;-5.35;100.00;99586.16;5130181;55;1142913;-70
2022/12/14 18:06:47;;;;;;;473.77;134.90;;;;;;;-5.35;100.00;99588.27;5109360;56;1145134;-73
2022/12/14 18:11:52;;;;;;;376.13;107.80;;;;;;;-5.39;100.00;99586.69;5150303;55;1145266;-75
2022/12/14 18:16:59;;;;;;;379.50;109.20;;;;;;;-5.46;100.00;99594.17;5186624;55;1145270;-72
2022/12/14 18:22:07;;;;;;;148.05;63.23;;;;;;;-5.50;100.00;99589.98;5173690;55;1145190;-66
2022/12/14 18:27:12;;;;;;;238.10;96.10;;;;;;;-5.50;100.00;99597.70;5196716;55;1143039;-66
2022/12/14 18:32:18;;;;;;;450.37;186.00;;;;;;;-5.48;100.00;99592.52;5125469;55;1143174;-67
2022/12/14 18:37:24;;;;;;;222.10;89.43;;;;;;;-5.48;100.00;99597.22;5144918;55;1145240;-71
2022/12/14 18:42:31;;;;;;;181.50;63.58;;;;;;;-5.43;100.00;99582.50;5217421;54;1143086;-69
2022/12/14 18:47:36;;;;;;;138.17;58.63;;;;;;;-5.40;100.00;99582.41;5237593;55;1143237;-67
2022/12/14 18:52:43;;;;;;;129.00;56.90;;;;;;;-5.38;100.00;99578.52;5216396;55;1143025;-71
2022/12/14 18:57:51;;;;;;;162.60;61.23;;;;;;;-5.38;100.00;99578.52;5185133;55;1143024;-70
2022/12/14 19:03:01;;;;;;;168.97;64.47;;;;;;;-5.39;100.00;99581.53;5170075;55;1143106;-73
2022/12/14 19:08:08;;;;;;;180.48;67.90;;;;;;;-5.41;100.00;99583.30;5141132;55;1143266;-72
2022/12/14 19:13:20;;;;;;;179.47;70.20;;;;;;;-5.43;100.00;99592.80;5129533;55;1143134;-70
2022/12/14 19:18:26;;;;;;;118.13;47.73;;;;;;;-5.45;100.00;99591.15;5129770;55;1143099;-66
2022/12/14 19:23:31;;;;;;;116.10;47.40;;;;;;;-5.51;100.00;99594.76;5150011;55;1143040;-67
2022/12/14 19:28:38;;;;;;;105.73;44.13;;;;;;;-5.60;100.00;99583.84;5155130;55;1143035;-71
2022/12/14 19:33:43;;;;;;;225.87;101.60;;;;;;;-5.65;100.00;99592.16;5180796;55;1143166;-69
2022/12/14 19:38:49;;;;;;;194.17;79.17;;;;;;;-5.67;100.00;99595.61;5172324;55;1145069;-71
2022/12/14 19:43:57;;;;;;;222.37;84.28;;;;;;;-5.67;100.00;99593.48;5207461;55;1143243;-72
2022/12/14 19:49:02;;;;;;;248.50;86.77;;;;;;;-5.69;100.00;99588.81;5182521;55;1143006;-73
2022/12/14 19:54:10;;;;;;;187.82;67.87;;;;;;;-5.70;100.00;99595.69;5195617;55;1143279;-68
2022/12/14 19:59:16;;;;;;;204.47;73.73;;;;;;;-5.69;100.00;99586.23;5186570;55;1142924;-71
2022/12/14 20:04:21;;;;;;;281.13;112.50;;;;;;;-5.64;100.00;99582.22;5208698;55;1143011;-71
2022/12/14 20:09:27;;;;;;;279.20;102.60;;;;;;;-5.57;100.00;99576.88;5212125;55;1145021;-68
2022/12/14 20:14:33;;;;;;;224.97;84.30;;;;;;;-5.54;100.00;99563.92;5158352;55;1145140;-70
2022/12/14 20:19:40;;;;;;;258.43;87.40;;;;;;;-5.52;100.00;99577.61;5207829;55;1142944;-67
2022/12/14 20:24:46;;;;;;;448.00;132.43;;;;;;;-5.56;100.00;99581.59;5206822;55;1143198;-71
2022/12/14 20:29:52;;;;;;;227.17;76.37;;;;;;;-5.59;100.00;99582.95;5132920;55;1145008;-71
2022/12/14 20:34:58;;;;;;;152.73;57.47;;;;;;;-5.69;100.00;99566.47;5153025;55;1142985;-69
2022/12/14 20:40:04;;;;;;;175.30;73.43;;;;;;;-5.69;100.00;99566.47;5220780;55;1143153;-70
2022/12/14 20:45:12;;;;;;;155.85;58.78;;;;;;;-5.66;100.00;99565.55;5134103;55;1143225;-71
2022/12/14 20:50:20;;;;;;;140.90;59.63;;;;;;;-5.62;100.00;99562.42;5151496;55;1142949;-69
2022/12/14 20:55:25;;;;;;;151.65;60.92;;;;;;;-5.57;100.00;99554.14;5141965;55;1142848;-68
2022/12/14 21:00:31;;;;;;;134.43;54.53;;;;;;;-5.63;100.00;99562.87;5165516;55;1143105;-67
2022/12/14 21:05:43;;;;;;;142.43;51.57;;;;;;;-5.69;100.00;99564.34;5141366;55;1142930;-69
2022/12/14 21:10:52;;;;;;;150.73;56.67;;;;;;;-5.71;100.00;99573.39;5163358;55;1143294;-72
2022/12/14 21:15:58;;;;;;;119.70;49.33;;;;;;;-5.70;100.00;99567.36;5170060;55;1142948;-68
2022/12/14 21:21:06;;;;;;;127.07;51.30;;;;;;;-5.64;100.00;99562.91;5153277;55;1143301;-70
2022/12/14 21:26:12;;;;;;;129.75;51.30;;;;;;;-5.67;100.00;99565.99;5145435;55;1143001;-71
2022/12/14 21:31:18;;;;;;;138.30;53.02;;;;;;;-5.67;100.00;99567.28;5161499;55;1143091;-71
2022/12/14 21:36:24;;;;;;;142.13;51.30;;;;;;;-5.72;100.00;99574.28;5176061;55;1142925;-69
2022/12/14 21:46:53;;;;;;;124.50;50.98;;;;;;;-5.85;100.00;99563.91;5155986;55;1143149;-70
2022/12/14 21:51:58;;;;;;;134.60;50.20;;;;;;;-5.87;100.00;99557.10;5171728;55;1142886;-69
2022/12/14 22:02:28;;;;;;;119.10;46.92;;;;;;;-5.74;100.00;99553.31;5164601;55;1143060;-66
2022/12/14 22:07:35;;;;;;;135.80;53.48;;;;;;;-5.59;100.00;99546.45;5124739;55;1143275;-69
2022/12/14 22:12:40;;;;;;;125.53;53.05;;;;;;;-5.47;100.00;99546.55;5172431;55;1143162;-67
2022/12/14 22:17:48;;;;;;;154.97;63.27;;;;;;;-5.38;100.00;99539.42;5152721;55;1143252;-66
2022/12/14 22:22:55;;;;;;;143.53;57.93;;;;;;;-5.41;100.00;99540.79;5135155;55;1143286;-69
2022/12/14 22:28:00;;;;;;;228.90;84.47;;;;;;;-5.39;100.00;99542.04;5150247;55;1143115;-68
2022/12/14 22:33:06;;;;;;;353.97;110.97;;;;;;;-5.36;100.00;99536.80;5130594;55;1142922;-74
2022/12/14 22:38:12;;;;;;;361.60;113.08;;;;;;;-5.49;100.00;99541.44;5130414;55;1145079;-73
2022/12/14 22:43:18;;;;;;;326.63;115.10;;;;;;;-5.62;100.00;99534.09;5130602;55;1145089;-68
2022/12/14 22:48:23;;;;;;;394.83;124.20;;;;;;;-5.61;100.00;99540.49;5150031;55;1145196;-71
2022/12/14 22:53:31;;;;;;;273.57;93.57;;;;;;;-5.65;100.00;99541.45;5129944;55;1144941;-68
2022/12/14 22:58:39;;;;;;;390.13;129.00;;;;;;;-5.76;100.00;99535.32;5130240;55;1143018;-66
2022/12/14 23:03:46;;;;;;;384.10;128.70;;;;;;;-6.02;100.00;99535.66;5156753;55;1145154;-68
